North Amherst, MA (01059)

7:13 AM EDT on May 06, 2015 (GMT -0400)
Computer Science Bldg - University of Massachusetts | | Change Station
CLOSE
Current Station
Personal Weather Station
Location: Amherst, MA
Elevation: 249 ft
Nearby Weather Stations

Elev 249 ft 42.40 °N, 72.50 °W | Updated 1 minute ago

Mostly Cloudy
Mostly Cloudy
54.7 °F
Feels Like 54.7 °F
N
0.0
Wind Variable Wind from ENE
Gusts 0.0 mph

Today
High -- | Low -- °F
--% Chance of Precip.
Yesterday
High -- | Low -- °F
Precip. -- in
5:39 AM 7:55 PM
Waning Gibbous, 94% visible
Pressure 30.25 in
Visibility 10.0 miles
Clouds Mostly Cloudy 17000 ft
Dew Point 43 °F
Humidity 64%
Rainfall 0.00 in
Snow Depth Not available.
UV 0 out of 12
Pollen 9.10 out of 12
Air Quality Not available.
Flu Activity Widespread
METAR KCEF 060858Z AUTO 36003KT 10SM BKN170 12/04 A3023 RMK AO2 SLP242 T01220036 52004

More Conditions Fewer Conditions

Pressure 30.25 in
Visibility 10.0 miles
Clouds Mostly Cloudy 17000 ft
Dew Point 43 °F
Humidity 64%
Rainfall 0.00 in
Snow Depth Not available.
UV 0 out of 12
Pollen 9.10 out of 12
Air Quality Not available.
Flu Activity Widespread
METAR KCEF 060858Z AUTO 36003KT 10SM BKN170 12/04 A3023 RMK AO2 SLP242 T01220036 52004

More Conditions Fewer Conditions

10-Day Weather Forecast

Almanac

Astronomy

May. 06, 2015 Rise Set
Actual Time
Civil Twilight
Nautical Twilight
Astronomical Twilight
Moon
Length of Visible Light
Length of Day
Tomorrow will be .
, % of the Moon is Illuminated

Today's Extremes

State Highs State Lows

Community

WunderPhotos

Upload Photos

1,818,876 photos uploaded!

WunderBlogs® & News

Nearby

Air Quality

  Air Quality AQ Index Pollutant
Not available.

Snow Depth

Station Depth Elevation

Earthquake Activity

City Distance Mag. Time & Date
Minimum magnitude displayed is 2.5.

Coastal Water Temperatures

Place Temperature

Stations

Nearby Weather Stations

Station Location Temp. Windchill Dew Point Humidity Wind Precip. Elev Updated Type